createdAt,value
2019-04-20T00:00:09.954Z,56.01
2019-04-20T00:01:07.469Z,56.10
2019-04-20T00:02:13.775Z,55.75
2019-04-20T00:03:07.666Z,55.82
2019-04-20T00:04:09.925Z,55.91
2019-04-20T00:05:07.512Z,56.49
2019-04-20T00:06:07.038Z,55.91
2019-04-20T00:07:08.024Z,56.01
2019-04-20T00:08:15.063Z,55.91
2019-04-20T00:09:15.410Z,56.49
2019-04-20T00:10:10.980Z,56.77
2019-04-20T00:11:14.181Z,56.59
2019-04-20T00:12:12.657Z,57.26
2019-04-20T00:13:20.204Z,56.87
2019-04-20T00:14:13.512Z,56.68
2019-04-20T00:15:06.986Z,56.77
2019-04-20T00:16:06.692Z,56.39
2019-04-20T00:17:07.222Z,56.77
2019-04-20T00:18:08.272Z,56.77
2019-04-20T00:19:07.700Z,56.77
2019-04-20T00:20:15.569Z,56.68
2019-04-20T00:21:11.004Z,56.68
2019-04-20T00:22:10.122Z,57.06
2019-04-20T00:23:07.800Z,57.26
2019-04-20T00:24:12.980Z,57.45
2019-04-20T00:25:10.459Z,56.87
2019-04-20T00:26:14.866Z,56.49
2019-04-20T00:27:28.478Z,57.26
2019-04-20T00:28:25.027Z,57.26
2019-04-20T00:29:25.446Z,57.83
2019-04-20T00:30:28.510Z,58.22
2019-04-20T00:31:23.457Z,57.64
2019-04-20T00:32:18.553Z,57.83
2019-04-20T00:33:21.646Z,57.92
2019-04-20T00:34:13.893Z,58.22
2019-04-20T00:35:06.388Z,57.99
2019-04-20T00:36:07.407Z,57.51
2019-04-20T00:37:07.014Z,58.09
2019-04-20T00:38:07.726Z,58.18
2019-04-20T00:39:09.477Z,58.09
2019-04-20T00:40:06.290Z,57.90
2019-04-20T00:41:10.108Z,57.80
2019-04-20T00:42:10.815Z,58.09
2019-04-20T00:43:06.702Z,57.80
2019-04-20T00:44:14.561Z,57.99
2019-04-20T00:45:12.939Z,58.28
2019-04-20T00:46:14.881Z,58.18
2019-04-20T00:47:15.804Z,57.70
2019-04-20T00:48:19.042Z,57.90
2019-04-20T00:49:23.109Z,57.80
2019-04-20T00:50:25.686Z,57.61
2019-04-20T00:51:25.895Z,57.99
2019-04-20T00:53:19.881Z,57.90
2019-04-20T00:54:07.269Z,57.90
2019-04-20T00:55:06.356Z,57.51
2019-04-20T00:56:07.446Z,57.70
2019-04-20T00:57:20.397Z,58.09
2019-04-20T00:58:18.557Z,58.37
2019-04-20T00:59:17.190Z,58.95
2019-04-20T01:00:21.769Z,59.05
2019-04-20T01:01:29.153Z,58.18
2019-04-20T01:02:22.148Z,58.18
2019-04-20T01:03:23.858Z,58.09
2019-04-20T01:04:25.527Z,58.56
2019-04-20T01:05:22.962Z,58.56
2019-04-20T01:06:23.136Z,58.66
2019-04-20T01:07:15.259Z,58.76
2019-04-20T01:08:06.932Z,58.47
2019-04-20T01:09:05.803Z,58.18
2019-04-20T01:10:06.983Z,58.28
2019-04-20T01:11:06.092Z,58.18
2019-04-20T01:12:14.805Z,58.56
2019-04-20T01:13:11.680Z,58.95
2019-04-20T01:14:09.584Z,58.09
2019-04-20T01:15:09.423Z,58.28
2019-04-20T01:16:19.472Z,58.09
2019-04-20T01:17:11.713Z,58.18
2019-04-20T01:18:05.711Z,58.18
2019-04-20T01:19:05.637Z,59.05
2019-04-20T01:20:05.619Z,58.66
2019-04-20T01:21:13.126Z,59.05
2019-04-20T01:22:10.716Z,58.56
2019-04-20T01:23:11.521Z,59.05
2019-04-20T01:24:08.340Z,58.28
2019-04-20T01:25:14.105Z,58.56
2019-04-20T01:26:11.135Z,58.18
2019-04-20T01:27:10.943Z,58.18
2019-04-20T01:28:25.043Z,58.18
2019-04-20T01:29:17.559Z,58.47
2019-04-20T01:30:14.612Z,58.18
2019-04-20T01:31:17.650Z,58.47
2019-04-20T01:32:15.052Z,58.86
2019-04-20T01:33:22.627Z,60.38
2019-04-20T01:34:22.410Z,59.78
2019-04-20T01:35:27.102Z,59.30
2019-04-20T01:36:29.547Z,59.49
2019-04-20T01:37:22.094Z,58.83
2019-04-20T01:38:20.985Z,59.11
2019-04-20T01:39:16.402Z,59.23
2019-04-20T01:40:07.764Z,59.49
2019-04-20T01:41:05.472Z,59.69
2019-04-20T01:42:06.434Z,59.30
2019-04-20T01:43:05.680Z,58.86
2019-04-20T01:44:05.216Z,59.20
2019-04-20T01:45:10.319Z,59.49
2019-04-20T01:46:11.891Z,58.92
2019-04-20T01:47:08.000Z,59.59
2019-04-20T01:48:06.462Z,59.88
2019-04-20T01:49:11.512Z,60.35
2019-04-20T01:50:10.311Z,60.45
2019-04-20T01:51:11.818Z,60.55
2019-04-20T01:52:12.933Z,60.06
2019-04-20T01:53:16.462Z,60.93
2019-04-20T01:54:22.938Z,60.74
2019-04-20T01:55:23.032Z,60.55
2019-04-20T01:56:17.758Z,60.64
2019-04-20T01:57:13.948Z,60.83
2019-04-20T01:58:25.564Z,61.12
2019-04-20T01:59:20.011Z,60.64
2019-04-20T02:00:11.501Z,61.41
2019-04-20T02:01:11.740Z,60.74
2019-04-20T02:02:09.958Z,60.90
2019-04-20T02:03:05.655Z,61.02
2019-04-20T02:04:06.793Z,61.22
2019-04-20T02:05:12.677Z,61.38
2019-04-20T02:06:09.901Z,61.60
2019-04-20T02:07:06.805Z,61.66
2019-04-20T02:08:08.718Z,62.52
2019-04-20T02:09:12.005Z,62.81
2019-04-20T02:10:08.221Z,62.33
2019-04-20T02:11:07.548Z,61.66
2019-04-20T02:12:10.739Z,61.38
2019-04-20T02:13:06.586Z,61.28
2019-04-20T02:14:08.326Z,61.19
2019-04-20T02:15:07.609Z,61.57
2019-04-20T02:16:14.504Z,61.76
2019-04-20T02:17:16.737Z,61.57
2019-04-20T02:18:17.642Z,61.85
2019-04-20T02:19:22.126Z,61.66
2019-04-20T02:20:22.851Z,61.85
2019-04-20T02:21:20.860Z,62.33
2019-04-20T02:22:17.092Z,62.24
2019-04-20T02:23:18.902Z,61.76
2019-04-20T02:24:07.428Z,62.33
2019-04-20T02:25:05.753Z,62.24
2019-04-20T02:26:05.082Z,62.04
2019-04-20T02:27:04.476Z,62.33
2019-04-20T02:28:23.062Z,62.62
2019-04-20T02:29:30.685Z,61.85
2019-04-20T02:30:40.929Z,62.14
2019-04-20T02:31:47.607Z,62.24
2019-04-20T02:32:26.608Z,62.33
2019-04-20T02:33:42.447Z,62.33
2019-04-20T02:34:39.672Z,62.90
2019-04-20T02:35:50.292Z,62.52
2019-04-20T02:36:53.311Z,63.00
2019-04-20T02:38:53.636Z,63.10
2019-04-20T02:43:49.804Z,63.29
2019-04-20T02:44:44.258Z,63.10
2019-04-20T02:46:41.427Z,62.90
2019-04-20T02:47:40.349Z,62.71
2019-04-20T02:48:30.179Z,63.00
2019-04-20T02:50:52.971Z,63.39
2019-04-20T02:51:42.306Z,63.10
2019-04-20T02:52:42.509Z,64.15
2019-04-20T02:53:44.830Z,63.96
2019-04-20T02:54:35.707Z,63.39
2019-04-20T02:56:44.625Z,63.86
2019-04-20T02:57:40.370Z,63.67
2019-04-20T02:58:36.382Z,63.57
2019-04-20T03:00:29.892Z,64.53
2019-04-20T03:02:18.463Z,64.22
2019-04-20T03:03:19.070Z,63.93
2019-04-20T03:04:10.716Z,64.34
2019-04-20T03:05:16.427Z,64.59
2019-04-20T03:06:17.117Z,64.59
2019-04-20T03:07:15.361Z,65.36
2019-04-20T03:08:22.367Z,65.26
2019-04-20T03:09:29.713Z,64.98
2019-04-20T03:10:25.088Z,66.13
2019-04-20T03:11:37.827Z,66.31
2019-04-20T03:12:29.192Z,66.60
2019-04-20T03:13:27.080Z,66.70
2019-04-20T03:14:21.828Z,67.84
2019-04-20T03:15:27.560Z,68.23
2019-04-20T03:17:27.127Z,68.38
2019-04-20T03:18:29.966Z,69.34
2019-04-20T03:19:20.694Z,69.43
2019-04-20T03:20:32.308Z,70.58
2019-04-20T03:21:27.248Z,71.06
2019-04-20T03:22:36.047Z,71.44
2019-04-20T03:23:31.304Z,71.63
2019-04-20T03:24:31.103Z,72.01
2019-04-20T03:25:24.179Z,72.49
2019-04-20T03:26:22.452Z,73.07
2019-04-20T03:27:19.221Z,72.68
2019-04-20T03:28:23.606Z,72.78
2019-04-20T03:29:18.864Z,73.07
2019-04-20T03:31:05.617Z,73.03
2019-04-20T03:31:41.233Z,73.12
2019-04-20T03:32:56.398Z,72.74
2019-04-20T03:33:47.478Z,73.69
2019-04-20T03:35:30.153Z,73.69
2019-04-20T03:36:51.981Z,74.17
2019-04-20T03:38:20.225Z,74.37
2019-04-20T03:39:22.134Z,74.27
2019-04-20T03:40:17.567Z,74.55
2019-04-20T03:41:16.558Z,74.74
2019-04-20T03:42:05.179Z,74.08
2019-04-20T03:43:03.838Z,74.17
2019-04-20T03:44:08.974Z,74.27
2019-04-20T03:45:09.014Z,74.08
2019-04-20T03:46:08.294Z,74.65
2019-04-20T03:47:08.053Z,74.13
2019-04-20T03:48:14.091Z,73.98
2019-04-20T03:49:21.350Z,73.50
2019-04-20T03:50:24.983Z,73.69
2019-04-20T03:51:30.629Z,73.75
2019-04-20T03:52:24.564Z,74.23
2019-04-20T03:53:22.959Z,74.32
2019-04-20T03:54:19.842Z,74.52
2019-04-20T03:55:23.967Z,74.99
2019-04-20T03:56:29.743Z,74.42
2019-04-20T03:57:31.994Z,73.85
2019-04-20T03:59:17.490Z,74.71
2019-04-20T04:00:21.885Z,74.61
2019-04-20T04:01:34.511Z,75.28
2019-04-20T04:02:35.145Z,74.90
2019-04-20T04:03:30.188Z,74.90
2019-04-20T04:04:27.673Z,75.47
2019-04-20T04:05:22.183Z,75.18
2019-04-20T04:06:15.659Z,75.28
2019-04-20T04:07:13.027Z,75.37
2019-04-20T04:08:12.273Z,75.85
2019-04-20T04:09:19.115Z,75.18
2019-04-20T04:10:16.889Z,75.66
2019-04-20T04:11:20.010Z,75.18
2019-04-20T04:12:12.195Z,75.81
2019-04-20T04:13:03.034Z,75.62
2019-04-20T04:14:03.003Z,75.85
2019-04-20T04:15:02.587Z,76.04
2019-04-20T04:16:06.704Z,77.06
2019-04-20T04:17:03.956Z,77.00
2019-04-20T04:18:07.777Z,76.86
2019-04-20T04:19:12.717Z,76.67
2019-04-20T04:20:08.796Z,77.53
2019-04-20T04:21:08.399Z,77.72
2019-04-20T04:22:17.476Z,77.44
2019-04-20T04:23:19.113Z,77.72
2019-04-20T04:24:17.043Z,77.91
2019-04-20T04:25:18.414Z,78.58
2019-04-20T04:26:21.989Z,78.20
2019-04-20T04:27:22.876Z,78.30
2019-04-20T04:28:23.860Z,77.91
2019-04-20T04:29:25.759Z,78.20
2019-04-20T04:30:20.693Z,78.20
2019-04-20T04:31:23.278Z,77.82
2019-04-20T04:32:35.486Z,78.20
2019-04-20T04:33:45.696Z,78.77
2019-04-20T04:34:17.479Z,78.01
2019-04-20T04:35:16.970Z,78.58
2019-04-20T04:36:18.254Z,78.39
2019-04-20T04:37:21.673Z,78.86
2019-04-20T04:38:19.457Z,79.15
2019-04-20T04:39:29.465Z,79.35
2019-04-20T04:40:31.810Z,78.49
2019-04-20T04:41:24.278Z,77.82
2019-04-20T04:42:24.950Z,78.10
2019-04-20T04:43:23.665Z,78.20
2019-04-20T04:44:14.731Z,78.49
2019-04-20T04:45:07.537Z,78.86
2019-04-20T04:46:01.931Z,78.67
2019-04-20T04:47:05.235Z,78.86
2019-04-20T04:48:02.046Z,78.58
2019-04-20T04:49:12.617Z,78.39
2019-04-20T04:50:10.765Z,78.39
2019-04-20T04:51:10.410Z,79.15
2019-04-20T04:52:07.901Z,79.06
2019-04-20T04:53:08.001Z,79.25
2019-04-20T04:54:13.110Z,79.25
2019-04-20T04:55:13.269Z,79.25
2019-04-20T04:56:07.355Z,79.15
2019-04-20T04:57:03.236Z,79.35
2019-04-20T04:58:02.320Z,79.44
2019-04-20T04:59:02.344Z,79.25
2019-04-20T05:00:01.782Z,79.06
2019-04-20T05:01:05.664Z,79.63
2019-04-20T05:02:02.173Z,79.63
2019-04-20T05:03:13.480Z,79.63
2019-04-20T05:04:23.064Z,79.72
2019-04-20T05:05:25.752Z,79.63
2019-04-20T05:06:20.852Z,79.91
2019-04-20T05:07:16.853Z,79.91
2019-04-20T05:08:10.177Z,79.82
2019-04-20T05:09:05.202Z,80.11
2019-04-20T05:10:01.471Z,79.44
2019-04-20T05:11:02.611Z,79.72
2019-04-20T05:12:07.238Z,80.11
2019-04-20T05:13:01.409Z,79.53
2019-04-20T05:14:06.735Z,78.96
2019-04-20T05:15:10.074Z,79.15
2019-04-20T05:16:16.792Z,79.15
2019-04-20T05:17:15.287Z,79.25
2019-04-20T05:18:18.349Z,79.25
2019-04-20T05:19:26.070Z,79.72
2019-04-20T05:20:17.379Z,78.77
2019-04-20T05:21:21.678Z,79.19
2019-04-20T05:22:20.595Z,78.62
2019-04-20T05:23:16.359Z,79.10
2019-04-20T05:24:17.914Z,78.62
2019-04-20T05:25:18.010Z,79.19
2019-04-20T05:26:19.733Z,79.28
2019-04-20T05:27:19.115Z,79.10
2019-04-20T05:28:19.086Z,79.19
2019-04-20T05:29:09.981Z,78.62
2019-04-20T05:30:01.337Z,78.23
2019-04-20T05:31:04.533Z,77.86
2019-04-20T05:32:07.932Z,77.47
2019-04-20T05:33:07.519Z,77.95
2019-04-20T05:34:29.143Z,77.23
2019-04-20T05:35:24.108Z,77.51
2019-04-20T05:36:18.140Z,77.42
2019-04-20T05:37:29.746Z,77.13
2019-04-20T05:38:23.654Z,76.84
2019-04-20T05:39:29.245Z,76.75
2019-04-20T05:40:22.242Z,76.75
2019-04-20T05:41:18.821Z,76.65
2019-04-20T05:42:24.612Z,75.32
2019-04-20T05:43:24.254Z,74.46
2019-04-20T05:44:17.029Z,74.74
2019-04-20T05:45:18.119Z,74.27
2019-04-20T05:46:22.108Z,73.88
2019-04-20T05:47:24.030Z,74.55
2019-04-20T05:48:16.391Z,74.74
2019-04-20T05:49:22.039Z,73.83
2019-04-20T05:50:16.609Z,73.35
2019-04-20T05:51:25.641Z,72.93
2019-04-20T05:52:36.122Z,72.39
2019-04-20T05:53:19.254Z,72.01
2019-04-20T05:54:23.640Z,71.82
2019-04-20T05:55:22.177Z,71.92
2019-04-20T05:56:17.418Z,71.53
2019-04-20T05:57:27.834Z,71.06
2019-04-20T05:58:22.107Z,71.92
2019-04-20T05:59:23.404Z,71.53
2019-04-20T06:00:20.181Z,71.53
2019-04-20T06:01:21.564Z,72.53
2019-04-20T06:02:22.854Z,71.86
2019-04-20T06:03:20.336Z,71.19
2019-04-20T06:04:22.480Z,71.38
2019-04-20T06:05:23.967Z,70.81
2019-04-20T06:06:22.032Z,70.81
2019-04-20T06:07:25.241Z,69.18
2019-04-20T06:08:34.202Z,68.61
2019-04-20T06:09:22.697Z,69.37
2019-04-20T06:10:27.385Z,69.56
2019-04-20T06:11:22.101Z,68.99
2019-04-20T06:12:20.998Z,69.79
2019-04-20T06:14:10.131Z,68.07
2019-04-20T06:15:12.745Z,67.78
2019-04-20T06:16:12.945Z,67.69
2019-04-20T06:17:22.052Z,67.69
2019-04-20T06:18:17.798Z,67.40
2019-04-20T06:19:25.849Z,68.16
2019-04-20T06:20:20.252Z,67.49
2019-04-20T06:21:26.551Z,67.02
2019-04-20T06:22:27.212Z,67.11
2019-04-20T06:23:25.969Z,66.54
2019-04-20T06:24:24.891Z,66.25
2019-04-20T06:25:39.072Z,66.16
2019-04-20T06:27:25.882Z,66.67
2019-04-20T06:28:20.354Z,66.28
2019-04-20T06:29:16.297Z,66.96
2019-04-20T06:30:13.558Z,66.57
2019-04-20T06:31:24.550Z,66.38
2019-04-20T06:32:27.155Z,66.47
2019-04-20T06:33:34.225Z,66.00
2019-04-20T06:35:33.598Z,65.17
2019-04-20T06:36:27.580Z,65.17
2019-04-20T06:37:21.306Z,64.12
2019-04-20T06:38:34.523Z,64.98
2019-04-20T06:39:24.346Z,65.84
2019-04-20T06:40:37.224Z,64.79
2019-04-20T06:41:32.998Z,64.88
2019-04-20T06:42:19.345Z,65.36
2019-04-20T06:43:19.724Z,64.50
2019-04-20T06:44:28.656Z,64.50
2019-04-20T06:45:28.163Z,63.48
2019-04-20T06:46:22.505Z,63.67
2019-04-20T06:47:18.884Z,63.76
2019-04-20T06:48:30.849Z,63.67
2019-04-20T06:49:29.258Z,63.39
2019-04-20T06:50:19.794Z,62.04
2019-04-20T06:51:22.428Z,63.29
2019-04-20T06:52:25.890Z,63.48
2019-04-20T06:53:28.533Z,63.51
2019-04-20T06:54:10.382Z,63.32
2019-04-20T06:55:14.135Z,60.83
2019-04-20T06:56:23.456Z,61.88
2019-04-20T06:57:21.105Z,61.50
2019-04-20T06:58:38.163Z,62.07
2019-04-20T06:59:26.520Z,60.54
2019-04-20T07:00:30.834Z,61.79
2019-04-20T07:01:23.502Z,60.54
2019-04-20T07:02:35.779Z,59.11
2019-04-20T07:03:40.444Z,58.81
2019-04-20T07:04:38.306Z,58.91
2019-04-20T07:05:22.368Z,59.01
2019-04-20T07:06:42.168Z,59.11
2019-04-20T07:07:40.390Z,58.08
2019-04-20T07:08:36.043Z,57.60
2019-04-20T07:09:27.227Z,56.64
2019-04-20T07:11:26.630Z,55.78
2019-04-20T07:12:16.801Z,54.72
2019-04-20T07:13:13.130Z,54.82
2019-04-20T07:14:06.049Z,54.91
2019-04-20T07:15:18.831Z,55.40
2019-04-20T07:16:26.758Z,55.52
2019-04-20T07:17:33.019Z,55.62
2019-04-20T07:18:26.138Z,54.75
2019-04-20T07:19:18.946Z,53.89
2019-04-20T07:20:18.457Z,53.79
2019-04-20T07:21:27.157Z,54.08
2019-04-20T07:24:25.516Z,53.12
2019-04-20T07:25:20.269Z,54.08
2019-04-20T07:26:22.251Z,54.97
2019-04-20T07:27:19.763Z,51.32
2019-04-20T07:28:29.116Z,51.71
2019-04-20T07:30:17.567Z,52.19
2019-04-20T07:31:18.129Z,52.38
2019-04-20T07:32:16.321Z,52.57
2019-04-20T07:33:25.700Z,53.44
2019-04-20T07:34:20.366Z,52.95
2019-04-20T07:35:22.055Z,51.81
2019-04-20T07:36:30.568Z,52.09
2019-04-20T07:37:52.923Z,52.89
2019-04-20T07:39:21.313Z,53.17
2019-04-20T07:40:22.912Z,52.40
2019-04-20T07:41:26.198Z,52.60
2019-04-20T07:42:27.155Z,52.12
2019-04-20T07:43:14.674Z,52.98
2019-04-20T07:44:27.892Z,52.69
2019-04-20T07:45:28.311Z,50.49
2019-04-20T07:46:35.307Z,48.76
2019-04-20T07:47:21.818Z,49.43
2019-04-20T07:48:20.655Z,50.49
2019-04-20T07:49:18.128Z,51.16
2019-04-20T07:50:12.900Z,49.74
2019-04-20T07:51:10.296Z,50.51
2019-04-20T07:51:59.612Z,51.09
2019-04-20T07:53:17.124Z,50.23
2019-04-20T07:54:22.992Z,48.21
2019-04-20T07:55:33.360Z,48.21
2019-04-20T07:56:25.651Z,49.46
2019-04-20T07:58:12.154Z,48.49
2019-04-20T07:59:11.269Z,47.92
2019-04-20T08:00:21.441Z,47.75
2019-04-20T08:01:27.111Z,47.36
2019-04-20T08:02:25.012Z,44.96
2019-04-20T08:03:22.260Z,45.06
2019-04-20T08:04:20.515Z,46.50
2019-04-20T08:05:11.019Z,46.02
2019-04-20T08:06:07.519Z,46.12
2019-04-20T08:07:03.773Z,45.64
2019-04-20T08:08:21.018Z,45.73
2019-04-20T08:09:13.407Z,46.59
2019-04-20T08:10:03.817Z,47.08
2019-04-20T08:11:13.795Z,46.43
2019-04-20T08:12:28.183Z,46.04
2019-04-20T08:13:25.699Z,44.79
2019-04-20T08:15:34.152Z,44.41
2019-04-20T08:16:22.891Z,44.51
2019-04-20T08:17:42.280Z,44.89
2019-04-20T08:18:21.325Z,44.41
2019-04-20T08:19:17.433Z,45.08
2019-04-20T08:20:18.896Z,44.70
2019-04-20T08:21:26.647Z,44.12
2019-04-20T08:22:20.945Z,44.12
2019-04-20T08:23:18.575Z,45.20
2019-04-20T08:24:17.086Z,44.05
2019-04-20T08:25:08.894Z,43.85
2019-04-20T08:26:06.222Z,44.43
2019-04-20T08:27:03.818Z,45.29
2019-04-20T08:27:59.142Z,45.78
2019-04-20T08:29:02.495Z,45.20
2019-04-20T08:30:18.236Z,43.95
2019-04-20T08:31:15.332Z,44.24
2019-04-20T08:32:17.811Z,45.01
2019-04-20T08:33:14.491Z,44.53
2019-04-20T08:34:35.127Z,45.29
2019-04-20T08:35:22.752Z,46.36
2019-04-20T08:36:22.833Z,46.36
2019-04-20T08:37:18.591Z,45.29
2019-04-20T08:39:30.597Z,45.22
2019-04-20T08:40:19.773Z,45.32
2019-04-20T08:41:15.308Z,46.09
2019-04-20T08:42:16.492Z,45.80
2019-04-20T08:43:36.822Z,46.36
2019-04-20T08:44:41.564Z,45.99
2019-04-20T08:45:23.945Z,45.99
2019-04-20T08:46:20.518Z,46.67
2019-04-20T08:47:27.369Z,46.47
2019-04-20T08:48:23.203Z,45.99
2019-04-20T08:49:26.272Z,45.80
2019-04-20T08:50:20.943Z,46.38
2019-04-20T08:51:20.925Z,45.32
2019-04-20T08:52:38.409Z,43.88
2019-04-20T08:53:27.580Z,44.55
2019-04-20T08:54:16.546Z,45.42
2019-04-20T08:55:16.762Z,45.70
2019-04-20T08:56:10.980Z,44.26
2019-04-20T08:57:01.620Z,44.07
2019-04-20T08:57:57.682Z,44.19
2019-04-20T08:58:57.625Z,44.09
2019-04-20T09:00:00.921Z,45.05
2019-04-20T09:01:01.304Z,44.38
2019-04-20T09:02:02.943Z,43.41
2019-04-20T09:03:05.699Z,44.09
2019-04-20T09:04:09.049Z,44.57
2019-04-20T09:05:03.198Z,44.96
2019-04-20T09:06:05.520Z,44.48
2019-04-20T09:07:05.579Z,44.48
2019-04-20T09:08:06.928Z,44.09
2019-04-20T09:09:20.664Z,44.76
2019-04-20T09:10:24.048Z,44.38
2019-04-20T09:11:16.732Z,44.48
2019-04-20T09:12:14.721Z,45.36
2019-04-20T09:13:08.343Z,43.73
2019-04-20T09:14:00.215Z,43.24
2019-04-20T09:14:57.438Z,43.73
2019-04-20T09:15:57.885Z,43.73
2019-04-20T09:17:02.896Z,43.54
2019-04-20T09:18:01.955Z,42.67
2019-04-20T09:19:04.681Z,43.05
2019-04-20T09:20:06.265Z,44.49
2019-04-20T09:21:04.310Z,43.34
2019-04-20T09:22:13.278Z,42.57
2019-04-20T09:23:13.533Z,43.24
2019-04-20T09:24:21.746Z,43.24
2019-04-20T09:25:37.536Z,42.96
2019-04-20T09:26:17.525Z,41.63
2019-04-20T09:27:09.500Z,41.82
2019-04-20T09:28:07.447Z,42.30
2019-04-20T09:29:10.372Z,41.72
2019-04-20T09:30:09.018Z,40.09
2019-04-20T09:31:12.243Z,40.76
2019-04-20T09:32:19.428Z,41.53
2019-04-20T09:33:18.224Z,41.63
2019-04-20T09:34:13.942Z,40.95
2019-04-20T09:35:13.670Z,40.86
2019-04-20T09:36:16.624Z,41.14
2019-04-20T09:37:21.371Z,40.59
2019-04-20T09:38:14.523Z,39.70
2019-04-20T09:39:10.400Z,40.11
2019-04-20T09:40:17.414Z,40.20
2019-04-20T09:41:18.487Z,40.01
2019-04-20T09:42:01.401Z,40.11
2019-04-20T09:42:57.048Z,38.85
2019-04-20T09:43:58.255Z,39.34
2019-04-20T09:45:00.685Z,39.14
2019-04-20T09:46:03.287Z,39.24
2019-04-20T09:46:59.827Z,37.60
2019-04-20T09:47:58.359Z,38.85
2019-04-20T09:49:02.142Z,40.01
2019-04-20T09:50:08.985Z,39.24
2019-04-20T09:51:16.887Z,38.85
2019-04-20T09:52:12.153Z,39.24
2019-04-20T09:53:12.807Z,40.01
2019-04-20T09:54:17.562Z,39.94
2019-04-20T09:55:10.676Z,38.68
2019-04-20T09:56:18.069Z,39.06
2019-04-20T09:57:14.971Z,39.16
2019-04-20T09:58:08.208Z,38.87
2019-04-20T09:59:16.599Z,38.20
2019-04-20T10:00:12.174Z,37.93
2019-04-20T10:01:11.216Z,37.71
2019-04-20T10:02:07.064Z,38.01
2019-04-20T10:02:58.244Z,38.12
2019-04-20T10:03:57.091Z,36.65
2019-04-20T10:04:57.746Z,37.35
2019-04-20T10:05:56.765Z,37.54
2019-04-20T10:07:00.039Z,37.06
2019-04-20T10:07:59.948Z,36.57
2019-04-20T10:09:00.068Z,36.48
2019-04-20T10:09:57.880Z,36.67
2019-04-20T10:10:56.669Z,36.48
2019-04-20T10:11:57.568Z,36.19
2019-04-20T10:12:56.636Z,37.06
2019-04-20T10:13:56.602Z,37.63
2019-04-20T10:14:58.503Z,37.93
2019-04-20T10:15:57.711Z,37.15
2019-04-20T10:16:57.856Z,36.59
2019-04-20T10:17:56.541Z,36.11
2019-04-20T10:18:56.908Z,36.30
2019-04-20T10:19:57.743Z,36.79
2019-04-20T10:20:57.806Z,37.65
2019-04-20T10:21:56.966Z,37.08
2019-04-20T10:22:56.474Z,37.65
2019-04-20T10:23:56.647Z,37.08
2019-04-20T10:24:57.175Z,35.55
2019-04-20T10:25:56.562Z,34.87
2019-04-20T10:26:56.632Z,36.42
2019-04-20T10:27:57.581Z,35.64
2019-04-20T10:28:57.453Z,37.10
2019-04-20T10:29:57.499Z,36.32
2019-04-20T10:30:56.776Z,37.10
2019-04-20T10:31:59.249Z,36.90
2019-04-20T10:32:57.444Z,35.55
2019-04-20T10:33:57.542Z,36.52
2019-04-20T10:34:56.826Z,37.19
2019-04-20T10:35:57.437Z,36.53
2019-04-20T10:36:57.483Z,35.76
2019-04-20T10:37:57.584Z,35.08
2019-04-20T10:38:56.267Z,34.02
2019-04-20T10:39:56.545Z,32.96
2019-04-20T10:41:06.053Z,32.87
2019-04-20T10:41:59.540Z,33.26
2019-04-20T10:42:59.527Z,33.65
2019-04-20T10:43:56.712Z,34.13
2019-04-20T10:44:58.621Z,34.73
2019-04-20T10:45:57.188Z,34.05
2019-04-20T10:46:56.579Z,34.45
2019-04-20T10:47:56.986Z,34.07
2019-04-20T10:49:00.726Z,33.89
2019-04-20T10:49:56.520Z,34.01
2019-04-20T10:50:56.878Z,32.65
2019-04-20T10:51:56.109Z,32.47
2019-04-20T10:52:56.132Z,30.74
2019-04-20T10:53:56.178Z,29.98
2019-04-20T10:54:56.531Z,29.88
2019-04-20T10:55:56.065Z,30.37
2019-04-20T10:56:56.154Z,29.88
2019-04-20T10:57:56.057Z,29.79
2019-04-20T10:58:56.034Z,30.08
2019-04-20T10:59:57.446Z,29.88
2019-04-20T11:00:56.083Z,30.87
2019-04-20T11:01:56.027Z,29.22
2019-04-20T11:02:55.990Z,28.44
2019-04-20T11:03:56.555Z,29.02
2019-04-20T11:04:56.984Z,29.01
2019-04-20T11:05:56.469Z,28.91
2019-04-20T11:06:56.636Z,29.11
